Time;durP1;ratioP1;P1;durP2;ratioP2;P2;SDS_P1;SDS_P2;PMS_P1;PMS_P2;Temp;Humidity;BMP_temperature;BMP_pressure;BME280_temperature;BME280_humidity;BME280_pressure;Samples;Min_cycle;Max_cycle;Signal;HPM_P1;HPM_P2
2020/12/27 00:02:04;;;;;;;1.77;0.53;;;5.40;79.70;;;;;;5111506;28;20034;-77
2020/12/27 00:04:29;;;;;;;2.70;0.90;;;5.40;79.70;;;;;;5095336;28;20051;-77
2020/12/27 00:06:55;;;;;;;1.37;0.70;;;5.40;80.00;;;;;;5110608;28;20024;-78
2020/12/27 00:09:21;;;;;;;1.57;0.87;;;5.40;79.90;;;;;;5055459;28;20460;-77
2020/12/27 00:11:46;;;;;;;2.90;0.60;;;5.40;79.50;;;;;;5091851;28;20092;-80
2020/12/27 00:14:12;;;;;;;1.60;0.80;;;5.40;79.50;;;;;;5074316;28;20498;-77
2020/12/27 00:16:37;;;;;;;2.00;0.60;;;5.40;79.60;;;;;;5076301;28;20034;-77
2020/12/27 00:19:03;;;;;;;2.43;0.80;;;5.30;79.00;;;;;;5074586;28;20036;-77
2020/12/27 00:21:29;;;;;;;1.60;0.60;;;5.30;79.80;;;;;;5074141;28;20481;-76
2020/12/27 00:23:54;;;;;;;1.60;0.60;;;5.40;79.80;;;;;;5086814;28;20212;-76
2020/12/27 00:26:20;;;;;;;1.90;0.90;;;5.30;79.30;;;;;;5080122;28;20039;-76
2020/12/27 00:28:45;;;;;;;1.30;0.60;;;5.40;79.30;;;;;;5074745;28;20026;-76
2020/12/27 00:31:16;;;;;;;2.33;0.60;;;5.30;79.40;;;;;;5091624;28;20101;-76
2020/12/27 00:33:42;;;;;;;1.40;0.70;;;5.40;80.10;;;;;;5092776;28;20479;-77
2020/12/27 00:36:07;;;;;;;1.23;0.70;;;5.40;80.00;;;;;;5073241;28;20119;-77
2020/12/27 00:38:33;;;;;;;1.67;0.67;;;5.40;80.10;;;;;;5071765;28;20039;-77
2020/12/27 00:40:59;;;;;;;0.70;0.40;;;5.40;79.00;;;;;;5089195;28;20475;-78
2020/12/27 00:43:25;;;;;;;1.83;0.30;;;5.40;78.70;;;;;;5075419;28;20020;-77
2020/12/27 00:45:51;;;;;;;1.80;0.60;;;5.40;78.70;;;;;;5090093;28;20027;-77
2020/12/27 00:48:16;;;;;;;1.50;0.30;;;5.40;78.60;;;;;;5091356;28;20050;-77
2020/12/27 00:50:42;;;;;;;2.63;0.60;;;5.40;78.80;;;;;;5092565;28;20060;-78
2020/12/27 00:53:08;;;;;;;0.90;0.40;;;5.40;78.40;;;;;;5090807;28;20277;-77
2020/12/27 00:55:33;;;;;;;1.27;0.37;;;5.40;78.50;;;;;;5092739;28;20501;-77
2020/12/27 00:57:59;;;;;;;1.43;0.53;;;5.40;78.80;;;;;;5074136;28;20123;-76
2020/12/27 01:00:24;;;;;;;1.23;0.60;;;5.40;78.70;;;;;;5091483;28;20063;-77
2020/12/27 01:02:50;;;;;;;1.13;0.50;;;5.40;79.00;;;;;;5091336;28;20031;-77
2020/12/27 01:05:16;;;;;;;2.07;0.90;;;5.40;79.40;;;;;;5071331;28;20432;-77
2020/12/27 01:07:41;;;;;;;2.60;0.60;;;5.40;78.90;;;;;;5074042;28;20083;-77
2020/12/27 01:10:07;;;;;;;1.00;0.60;;;5.40;78.60;;;;;;5057875;28;20047;-76
2020/12/27 01:12:32;;;;;;;1.43;0.73;;;5.40;78.80;;;;;;5074880;28;20119;-77
2020/12/27 01:14:58;;;;;;;1.73;0.67;;;5.40;79.50;;;;;;5073076;28;20032;-77
2020/12/27 01:17:24;;;;;;;1.77;0.70;;;5.40;79.60;;;;;;5075335;28;20042;-77
2020/12/27 01:19:50;;;;;;;3.00;0.73;;;5.30;79.40;;;;;;5074722;28;20039;-77
2020/12/27 01:22:15;;;;;;;1.40;0.80;;;5.40;79.50;;;;;;5078194;28;20051;-76
2020/12/27 01:24:41;;;;;;;2.30;1.00;;;5.40;78.80;;;;;;5102446;28;20043;-77
2020/12/27 01:27:08;;;;;;;2.50;1.10;;;5.40;79.30;;;;;;5091346;28;20115;-77
2020/12/27 01:29:33;;;;;;;2.20;0.90;;;5.30;78.50;;;;;;5089189;28;20031;-77
2020/12/27 01:32:01;;;;;;;3.40;1.30;;;5.30;79.40;;;;;;5074421;28;20024;-77
2020/12/27 01:34:30;;;;;;;2.57;0.80;;;5.30;79.50;;;;;;5073123;28;20118;-76
2020/12/27 01:36:55;;;;;;;2.33;1.10;;;5.30;79.00;;;;;;5091569;28;20383;-76
2020/12/27 01:39:21;;;;;;;2.00;1.20;;;5.30;78.80;;;;;;5074269;28;20118;-77
2020/12/27 01:41:47;;;;;;;3.13;1.30;;;5.20;78.90;;;;;;5110221;28;20089;-76
2020/12/27 01:44:14;;;;;;;1.87;1.53;;;5.20;78.90;;;;;;5089908;28;20031;-77
2020/12/27 01:46:42;;;;;;;2.17;1.37;;;5.20;79.90;;;;;;5071643;28;20032;-76
2020/12/27 01:49:09;;;;;;;2.70;1.40;;;5.20;80.00;;;;;;5081595;28;20490;-77
2020/12/27 01:51:36;;;;;;;2.07;1.30;;;5.20;79.40;;;;;;5057369;28;20035;-76
2020/12/27 01:54:02;;;;;;;2.80;1.20;;;5.20;79.80;;;;;;5108952;28;20131;-76
2020/12/27 01:56:49;;;;;;;2.00;1.00;;;5.20;80.00;;;;;;5073339;28;20042;-77
2020/12/27 01:59:26;;;;;;;1.80;1.27;;;5.20;79.40;;;;;;5089524;28;20499;-76
2020/12/27 02:01:52;;;;;;;4.27;1.57;;;5.20;79.60;;;;;;5091617;28;20028;-77
2020/12/27 02:04:17;;;;;;;2.00;1.20;;;5.30;80.10;;;;;;5094281;28;20028;-76
2020/12/27 02:06:43;;;;;;;1.83;1.23;;;5.30;79.80;;;;;;5057841;28;20043;-77
2020/12/27 02:09:11;;;;;;;2.70;1.10;;;5.30;79.80;;;;;;5090057;28;20980;-77
2020/12/27 02:11:36;;;;;;;1.70;1.20;;;5.30;79.50;;;;;;5108921;28;20031;-76
2020/12/27 02:14:02;;;;;;;2.37;1.07;;;5.30;80.00;;;;;;5107723;28;20039;-77
2020/12/27 02:16:29;;;;;;;3.87;1.30;;;5.30;79.20;;;;;;5089981;28;20053;-76
2020/12/27 02:18:57;;;;;;;2.63;1.40;;;5.30;79.70;;;;;;5089519;28;20110;-77
2020/12/27 02:21:23;;;;;;;2.77;1.20;;;5.30;79.60;;;;;;5095119;28;20053;-77
2020/12/27 02:23:54;;;;;;;2.93;1.30;;;5.30;79.30;;;;;;5112500;28;20487;-77
2020/12/27 02:26:20;;;;;;;1.33;0.93;;;5.40;79.90;;;;;;5112791;28;20027;-77
2020/12/27 02:28:45;;;;;;;1.57;1.03;;;5.40;79.40;;;;;;5077703;28;20238;-77
2020/12/27 02:31:11;;;;;;;2.03;1.00;;;5.30;78.50;;;;;;5110903;28;20204;-76
2020/12/27 02:33:37;;;;;;;2.30;1.40;;;5.30;78.90;;;;;;5094935;28;20031;-77
2020/12/27 02:36:03;;;;;;;2.47;0.80;;;5.30;79.10;;;;;;5111585;28;20081;-77
2020/12/27 02:38:28;;;;;;;1.70;1.00;;;5.30;78.90;;;;;;5095082;28;20020;-76
2020/12/27 02:40:54;;;;;;;2.63;0.80;;;5.30;78.80;;;;;;5091645;28;20050;-76
2020/12/27 02:43:20;;;;;;;1.47;1.10;;;5.30;79.00;;;;;;5111761;28;20031;-76
2020/12/27 02:45:47;;;;;;;2.73;0.73;;;5.30;79.30;;;;;;5094723;28;20028;-76
2020/12/27 02:48:13;;;;;;;4.60;1.10;;;5.30;78.80;;;;;;5092913;28;20237;-76
2020/12/27 02:50:38;;;;;;;3.23;0.90;;;5.30;78.40;;;;;;5076366;28;20626;-76
2020/12/27 02:53:04;;;;;;;2.30;0.80;;;5.30;78.90;;;;;;5073106;28;20038;-76
2020/12/27 02:55:33;;;;;;;1.40;0.67;;;5.40;78.80;;;;;;5082480;28;20036;-76
2020/12/27 02:57:59;;;;;;;1.63;0.70;;;5.40;79.40;;;;;;5040341;28;20024;-76
2020/12/27 03:00:29;;;;;;;1.60;1.00;;;5.40;78.90;;;;;;5109216;28;20102;-76
2020/12/27 03:02:56;;;;;;;1.37;0.70;;;5.40;78.90;;;;;;5093080;28;20035;-77
2020/12/27 03:05:23;;;;;;;1.60;0.80;;;5.40;78.90;;;;;;5077746;28;20085;-76
2020/12/27 03:07:48;;;;;;;1.40;0.80;;;5.40;78.80;;;;;;5096074;28;20079;-75
2020/12/27 03:10:14;;;;;;;1.87;0.80;;;5.40;78.80;;;;;;5100060;28;20047;-76
2020/12/27 03:12:42;;;;;;;1.80;0.87;;;5.40;78.50;;;;;;5077924;28;20020;-76
2020/12/27 03:15:08;;;;;;;1.73;0.90;;;5.40;78.60;;;;;;5110783;28;20482;-76
2020/12/27 03:17:33;;;;;;;2.20;0.80;;;5.40;78.80;;;;;;5109378;28;20059;-76
2020/12/27 03:19:59;;;;;;;3.40;0.80;;;5.40;78.60;;;;;;5067010;28;20062;-75
2020/12/27 03:22:25;;;;;;;1.60;0.73;;;5.50;78.90;;;;;;5073302;28;20383;-75
2020/12/27 03:24:50;;;;;;;1.40;0.73;;;5.50;78.80;;;;;;5103226;28;20036;-76
2020/12/27 03:27:16;;;;;;;1.47;0.57;;;5.50;78.20;;;;;;5076356;28;20513;-75
2020/12/27 03:29:41;;;;;;;1.93;0.70;;;5.50;78.60;;;;;;5111353;28;20028;-75
2020/12/27 03:32:07;;;;;;;2.60;0.60;;;5.50;78.40;;;;;;5109935;28;20394;-76
2020/12/27 03:34:32;;;;;;;0.80;0.43;;;5.50;78.00;;;;;;5093350;28;20078;-76
2020/12/27 03:36:58;;;;;;;0.83;0.47;;;5.50;78.10;;;;;;5092963;28;20059;-77
2020/12/27 03:39:24;;;;;;;1.33;0.40;;;5.60;78.00;;;;;;5089786;28;20109;-76
2020/12/27 03:41:49;;;;;;;1.50;0.50;;;5.50;78.30;;;;;;5091774;28;20039;-76
2020/12/27 03:44:15;;;;;;;0.90;0.50;;;5.50;77.70;;;;;;5095845;28;20096;-75
2020/12/27 03:46:41;;;;;;;1.27;0.40;;;5.60;78.80;;;;;;5074860;28;20032;-76
2020/12/27 03:49:06;;;;;;;1.50;0.50;;;5.60;78.40;;;;;;5074496;28;20028;-76
2020/12/27 03:51:32;;;;;;;2.80;0.40;;;5.60;78.20;;;;;;5112084;28;20063;-75
2020/12/27 03:53:57;;;;;;;1.37;0.40;;;5.60;78.00;;;;;;5075313;28;20048;-77
2020/12/27 03:56:24;;;;;;;0.83;0.40;;;5.60;78.00;;;;;;5106320;28;20035;-75
2020/12/27 03:58:49;;;;;;;0.93;0.40;;;5.60;78.20;;;;;;5089888;28;20061;-76
2020/12/27 04:01:15;;;;;;;1.13;0.50;;;5.60;78.60;;;;;;5075683;28;20104;-76
2020/12/27 04:03:41;;;;;;;1.17;0.50;;;5.60;78.50;;;;;;5106177;28;20193;-76
2020/12/27 04:06:07;;;;;;;1.23;0.50;;;5.60;78.80;;;;;;5092708;28;20024;-76
2020/12/27 04:08:32;;;;;;;0.97;0.40;;;5.60;78.20;;;;;;5091070;28;20062;-76
2020/12/27 04:10:58;;;;;;;1.73;0.50;;;5.60;78.10;;;;;;5092655;28;20112;-77
2020/12/27 04:13:23;;;;;;;1.13;0.30;;;5.60;78.10;;;;;;5110832;28;20119;-76
2020/12/27 04:15:49;;;;;;;1.30;0.43;;;5.60;78.40;;;;;;5075764;28;20036;-76
2020/12/27 04:18:15;;;;;;;3.87;0.57;;;5.60;78.40;;;;;;5060409;28;20032;-75
2020/12/27 04:20:40;;;;;;;1.97;0.40;;;5.70;78.10;;;;;;5092274;28;20028;-76
2020/12/27 04:23:06;;;;;;;1.37;0.50;;;5.70;78.80;;;;;;5074360;28;20491;-76
2020/12/27 04:25:31;;;;;;;0.90;0.40;;;5.70;78.00;;;;;;5111457;28;20059;-75
2020/12/27 04:27:57;;;;;;;1.97;0.40;;;5.70;78.20;;;;;;5087261;28;20031;-76
2020/12/27 04:30:23;;;;;;;1.23;0.30;;;5.70;78.50;;;;;;5061648;28;20028;-76
2020/12/27 04:32:48;;;;;;;1.20;0.40;;;5.70;78.50;;;;;;5072356;28;20038;-76
2020/12/27 04:35:14;;;;;;;0.80;0.40;;;5.70;78.70;;;;;;5054363;28;20042;-76
2020/12/27 04:37:39;;;;;;;0.90;0.30;;;5.70;78.30;;;;;;5075824;28;20528;-76
2020/12/27 04:40:05;;;;;;;0.90;0.30;;;5.70;78.20;;;;;;5109421;28;20118;-76
2020/12/27 04:42:31;;;;;;;0.43;0.30;;;5.70;78.30;;;;;;5091419;28;20191;-76
2020/12/27 04:44:58;;;;;;;1.57;0.40;;;5.70;77.90;;;;;;5110124;28;20428;-76
2020/12/27 04:47:25;;;;;;;0.83;0.37;;;5.80;78.30;;;;;;5110238;28;20099;-76
2020/12/27 04:49:51;;;;;;;2.07;0.30;;;5.80;78.40;;;;;;5091333;28;20088;-75
2020/12/27 04:52:21;;;;;;;0.60;0.30;;;5.80;78.30;;;;;;5090393;28;20050;-76
2020/12/27 04:54:49;;;;;;;0.57;0.20;;;5.80;78.90;;;;;;5091171;28;20073;-77
2020/12/27 04:57:16;;;;;;;0.90;0.30;;;5.80;78.10;;;;;;5088227;28;20092;-76
2020/12/27 04:59:46;;;;;;;0.60;0.27;;;5.90;78.30;;;;;;5110063;28;20063;-76
2020/12/27 05:02:12;;;;;;;0.37;0.20;;;5.90;78.10;;;;;;5091691;28;20059;-76
2020/12/27 05:04:38;;;;;;;0.70;0.20;;;5.90;77.70;;;;;;5109816;28;20799;-76
2020/12/27 05:07:04;;;;;;;0.70;0.30;;;5.90;77.90;;;;;;5091961;28;20067;-78
2020/12/27 05:09:30;;;;;;;0.83;0.10;;;5.90;78.30;;;;;;5091258;28;20031;-77
2020/12/27 05:11:56;;;;;;;0.70;0.20;;;6.00;78.80;;;;;;5091173;28;20027;-77
2020/12/27 05:14:27;;;;;;;0.70;0.20;;;6.00;78.20;;;;;;5090990;28;20150;-76
2020/12/27 05:16:54;;;;;;;0.50;0.20;;;6.00;77.90;;;;;;5090096;28;20038;-76
2020/12/27 05:19:21;;;;;;;0.30;0.10;;;6.00;77.80;;;;;;5107282;28;20036;-76
2020/12/27 05:21:46;;;;;;;0.43;0.10;;;6.00;77.90;;;;;;5126224;28;20451;-76
2020/12/27 05:24:19;;;;;;;0.40;0.20;;;6.00;78.10;;;;;;5108310;28;20168;-77
2020/12/27 05:26:46;;;;;;;0.53;0.10;;;6.10;77.90;;;;;;5099670;28;20023;-77
2020/12/27 05:29:28;;;;;;;0.97;0.10;;;6.10;77.90;;;;;;5073696;28;20285;-77
2020/12/27 05:31:54;;;;;;;0.70;0.10;;;6.10;78.00;;;;;;5109538;28;20027;-76
2020/12/27 05:34:19;;;;;;;0.50;0.20;;;6.10;78.20;;;;;;5110135;28;20457;-77
2020/12/27 05:36:45;;;;;;;0.87;0.10;;;6.20;77.90;;;;;;5088232;28;20047;-77
2020/12/27 05:39:15;;;;;;;0.20;0.10;;;6.20;78.00;;;;;;5089650;28;20353;-77
2020/12/27 05:41:41;;;;;;;0.37;0.10;;;6.20;77.90;;;;;;5092047;28;20041;-76
2020/12/27 05:44:06;;;;;;;1.30;0.10;;;6.30;78.00;;;;;;5056313;28;20456;-77
2020/12/27 05:46:32;;;;;;;0.10;0.00;;;6.20;77.20;;;;;;5058288;28;20038;-77
2020/12/27 05:48:58;;;;;;;0.50;0.00;;;6.30;77.30;;;;;;5074222;28;20035;-76
2020/12/27 05:51:25;;;;;;;0.20;0.00;;;6.30;77.10;;;;;;5091272;28;20106;-77
2020/12/27 05:53:52;;;;;;;0.30;0.10;;;6.30;77.50;;;;;;5107862;28;20459;-77
2020/12/27 05:56:19;;;;;;;0.10;0.00;;;6.30;77.10;;;;;;5094468;28;20176;-77
2020/12/27 05:58:46;;;;;;;0.57;0.10;;;6.30;77.80;;;;;;5076653;28;20106;-77
2020/12/27 06:01:22;;;;;;;1.03;0.10;;;6.30;77.60;;;;;;5112643;28;20103;-77
2020/12/27 06:04:00;;;;;;;0.20;0.10;;;6.30;76.90;;;;;;5095955;28;20608;-77
2020/12/27 06:06:59;;;;;;;0.10;0.00;;;6.30;77.40;;;;;;5094483;28;20712;-77
2020/12/27 06:09:44;;;;;;;0.63;0.00;;;6.30;77.50;;;;;;5094091;28;20114;-75
2020/12/27 06:12:12;;;;;;;0.20;0.00;;;6.30;76.90;;;;;;5113844;28;20032;-76
2020/12/27 06:14:42;;;;;;;0.30;0.10;;;6.30;76.90;;;;;;5112767;28;20482;-77
2020/12/27 06:17:14;;;;;;;0.53;0.00;;;6.40;77.30;;;;;;5076677;28;20451;-75
2020/12/27 06:19:55;;;;;;;0.30;0.10;;;6.40;77.30;;;;;;5094481;28;20089;-74
2020/12/27 06:22:31;;;;;;;0.40;0.00;;;6.50;77.70;;;;;;5093813;28;20055;-77
2020/12/27 06:24:59;;;;;;;0.20;0.10;;;6.40;77.60;;;;;;5110800;28;20027;-77
2020/12/27 06:27:29;;;;;;;0.07;0.00;;;6.50;77.30;;;;;;5093516;28;20023;-77
2020/12/27 06:30:08;;;;;;;0.67;0.07;;;6.40;77.30;;;;;;5094497;28;20073;-77
2020/12/27 06:32:40;;;;;;;0.40;0.00;;;6.40;77.60;;;;;;5076755;28;20024;-77
2020/12/27 06:35:07;;;;;;;0.47;0.10;;;6.40;77.80;;;;;;5113535;28;20027;-76
2020/12/27 06:37:41;;;;;;;0.20;0.00;;;6.50;77.10;;;;;;5077024;28;20042;-77
2020/12/27 06:40:07;;;;;;;0.53;0.00;;;6.50;77.20;;;;;;5077149;28;20032;-77
2020/12/27 06:42:34;;;;;;;0.00;0.00;;;6.50;77.40;;;;;;5113339;28;20114;-77
2020/12/27 06:44:59;;;;;;;0.17;0.03;;;6.50;76.60;;;;;;5073061;28;20032;-75
2020/12/27 06:47:47;;;;;;;0.40;0.00;;;6.50;76.50;;;;;;5074729;28;20030;-75
2020/12/27 06:50:14;;;;;;;0.10;0.00;;;6.40;76.70;;;;;;5074486;28;20124;-75
2020/12/27 06:52:40;;;;;;;0.40;0.00;;;6.50;76.50;;;;;;5082461;28;20076;-74
2020/12/27 06:55:05;;;;;;;0.20;0.00;;;6.50;76.70;;;;;;5112240;28;20397;-74
2020/12/27 06:57:44;;;;;;;1.17;0.10;;;6.50;76.60;;;;;;5059263;28;20113;-75
2020/12/27 07:00:25;;;;;;;0.83;0.00;;;6.50;76.30;;;;;;5079470;28;20070;-75
2020/12/27 07:03:06;;;;;;;0.27;0.00;;;6.50;76.20;;;;;;5077261;28;20034;-77
2020/12/27 07:05:34;;;;;;;0.67;0.00;;;6.50;76.30;;;;;;5110723;28;20124;-76
2020/12/27 07:08:05;;;;;;;0.40;0.10;;;6.50;76.50;;;;;;5094649;28;20042;-74
2020/12/27 07:10:33;;;;;;;0.00;0.00;;;6.50;76.30;;;;;;5107214;28;20110;-74
2020/12/27 07:13:06;;;;;;;1.40;0.00;;;6.60;76.10;;;;;;5096696;28;20030;-74
2020/12/27 07:15:32;;;;;;;;;;;6.60;76.20;;;;;;5093440;28;20031;-74
2020/12/27 07:18:08;;;;;;;0.30;0.10;;;6.60;75.80;;;;;;5112117;28;20373;-75
2020/12/27 07:20:35;;;;;;;0.10;0.00;;;6.60;76.00;;;;;;5094118;28;20032;-75
2020/12/27 07:23:00;;;;;;;0.13;0.00;;;6.60;76.00;;;;;;5074151;28;20506;-76
2020/12/27 07:25:29;;;;;;;0.00;0.00;;;6.60;75.60;;;;;;5101809;28;20039;-76
2020/12/27 07:27:57;;;;;;;0.30;0.00;;;6.60;76.10;;;;;;5093105;28;20122;-75
2020/12/27 07:30:26;;;;;;;0.10;0.00;;;6.60;76.70;;;;;;5110964;28;20035;-76
2020/12/27 07:32:52;;;;;;;0.20;0.00;;;6.60;76.60;;;;;;5093514;28;20073;-77
2020/12/27 07:35:22;;;;;;;0.40;0.00;;;6.60;77.40;;;;;;5074014;28;20035;-75
2020/12/27 07:37:59;;;;;;;0.30;0.00;;;6.60;77.80;;;;;;5076706;28;20046;-76
2020/12/27 07:40:30;;;;;;;1.10;0.00;;;6.50;78.60;;;;;;5093309;28;20065;-76
2020/12/27 07:42:56;;;;;;;0.27;0.00;;;6.50;78.80;;;;;;5111544;28;20059;-76
2020/12/27 07:45:22;;;;;;;0.53;0.00;;;6.40;79.20;;;;;;5074145;28;20128;-76
2020/12/27 07:47:47;;;;;;;0.13;0.00;;;6.40;79.40;;;;;;5093222;28;20060;-77
2020/12/27 07:50:18;;;;;;;1.23;0.00;;;6.40;79.70;;;;;;5089676;28;20040;-75
2020/12/27 07:52:52;;;;;;;0.90;0.20;;;6.30;79.60;;;;;;5077432;28;20066;-76
2020/12/27 07:55:26;;;;;;;0.63;0.10;;;6.20;80.50;;;;;;5112541;28;20024;-78
2020/12/27 07:57:53;;;;;;;1.23;0.00;;;6.10;80.80;;;;;;5112693;28;20026;-78
2020/12/27 08:00:29;;;;;;;0.20;0.07;;;6.00;81.20;;;;;;5109798;28;20035;-77
2020/12/27 08:02:55;;;;;;;0.87;0.10;;;6.00;81.70;;;;;;5093662;28;20403;-78
2020/12/27 08:05:22;;;;;;;0.60;0.00;;;5.90;82.00;;;;;;5054239;28;20059;-77
2020/12/27 08:07:48;;;;;;;1.80;0.10;;;5.90;82.40;;;;;;5073279;28;20020;-77
2020/12/27 08:10:23;;;;;;;0.20;0.00;;;5.90;83.00;;;;;;5105231;28;20036;-76
2020/12/27 08:12:50;;;;;;;0.77;0.10;;;5.90;83.10;;;;;;5110435;28;20028;-78
2020/12/27 08:15:16;;;;;;;0.17;0.00;;;5.80;83.80;;;;;;5071847;28;20039;-78
2020/12/27 08:18:02;;;;;;;0.60;0.10;;;5.80;84.40;;;;;;5110372;28;20040;-78
2020/12/27 08:20:30;;;;;;;0.33;0.00;;;5.80;84.40;;;;;;5109854;28;20036;-79
2020/12/27 08:22:59;;;;;;;0.13;0.00;;;5.80;84.60;;;;;;5075625;28;20396;-80
2020/12/27 08:25:25;;;;;;;0.40;0.00;;;5.80;84.90;;;;;;5065386;28;20043;-80
2020/12/27 08:27:56;;;;;;;0.50;0.10;;;5.80;84.70;;;;;;5091490;28;20024;-77
2020/12/27 08:30:23;;;;;;;1.03;0.10;;;5.80;84.70;;;;;;5115128;27;20108;-79
2020/12/27 08:32:48;;;;;;;0.80;0.10;;;5.80;85.00;;;;;;5088932;28;20028;-79
2020/12/27 08:35:24;;;;;;;0.70;0.10;;;5.80;84.70;;;;;;5084286;28;20791;-78
2020/12/27 08:38:01;;;;;;;2.10;0.20;;;5.70;85.10;;;;;;5107641;28;20054;-78
2020/12/27 08:40:30;;;;;;;0.40;0.00;;;5.70;85.00;;;;;;5090405;28;20366;-76
2020/12/27 08:43:03;;;;;;;1.13;0.10;;;5.70;84.90;;;;;;5099487;28;20034;-76
2020/12/27 08:45:34;;;;;;;0.87;0.37;;;5.70;85.20;;;;;;5081034;28;20104;-77
2020/12/27 08:48:13;;;;;;;0.57;0.17;;;5.60;85.30;;;;;;5100569;28;20055;-78
2020/12/27 08:50:42;;;;;;;0.93;0.50;;;5.60;85.70;;;;;;5082463;28;20281;-78
2020/12/27 08:53:13;;;;;;;0.40;0.10;;;5.60;85.50;;;;;;5082363;28;20083;-79
2020/12/27 08:55:40;;;;;;;0.70;0.10;;;5.60;85.60;;;;;;5102173;28;20036;-79
2020/12/27 08:58:10;;;;;;;1.17;0.40;;;5.60;85.50;;;;;;5082614;28;20048;-78
2020/12/27 09:00:36;;;;;;;0.70;0.10;;;5.60;85.70;;;;;;5085736;28;20031;-79
2020/12/27 09:03:04;;;;;;;0.40;0.20;;;5.60;86.00;;;;;;5090309;28;20031;-79
2020/12/27 09:05:31;;;;;;;0.90;0.30;;;5.60;86.30;;;;;;5082389;28;20036;-79
2020/12/27 09:07:57;;;;;;;0.30;0.10;;;5.60;85.70;;;;;;5099977;28;20024;-78
2020/12/27 09:10:25;;;;;;;0.77;0.20;;;5.60;85.30;;;;;;5068638;28;20122;-78
2020/12/27 09:13:01;;;;;;;0.70;0.10;;;5.70;85.80;;;;;;5101105;28;20064;-78
2020/12/27 09:15:29;;;;;;;0.77;0.10;;;5.70;85.40;;;;;;5101330;28;20449;-78
2020/12/27 09:17:55;;;;;;;0.67;0.30;;;5.70;85.30;;;;;;5088865;28;20456;-79
2020/12/27 09:20:23;;;;;;;1.23;0.40;;;5.70;85.60;;;;;;5064608;28;20038;-78
2020/12/27 09:22:49;;;;;;;0.50;0.13;;;5.80;85.90;;;;;;5101918;28;20122;-78
2020/12/27 09:25:20;;;;;;;0.67;0.20;;;5.80;85.90;;;;;;5082368;28;20031;-79
2020/12/27 09:27:46;;;;;;;0.07;0.00;;;5.90;85.40;;;;;;5089534;28;20055;-79
2020/12/27 09:30:26;;;;;;;0.63;0.10;;;5.90;84.90;;;;;;5092504;28;20103;-78
2020/12/27 09:33:01;;;;;;;0.43;0.10;;;5.80;84.50;;;;;;5071571;28;20133;-80
2020/12/27 09:35:27;;;;;;;1.23;0.43;;;5.80;84.90;;;;;;5083344;28;20039;-79
2020/12/27 09:37:53;;;;;;;2.40;0.87;;;5.80;84.90;;;;;;5110215;28;20174;-77
2020/12/27 09:40:19;;;;;;;1.43;0.50;;;5.80;84.90;;;;;;5106697;28;20102;-78
2020/12/27 09:42:46;;;;;;;2.03;0.10;;;5.80;85.20;;;;;;5111154;28;20035;-79
2020/12/27 09:45:39;;;;;;;0.47;0.10;;;5.80;85.30;;;;;;5092302;28;20030;-79
2020/12/27 09:48:04;;;;;;;4.43;1.73;;;5.80;84.90;;;;;;5093835;28;20032;-80
2020/12/27 09:50:35;;;;;;;0.10;0.00;;;5.80;85.50;;;;;;5080806;28;20074;-78
2020/12/27 09:53:03;;;;;;;1.27;0.47;;;5.80;85.30;;;;;;5077603;28;20066;-77
2020/12/27 09:55:29;;;;;;;2.10;0.67;;;5.80;85.10;;;;;;5085178;28;20452;-78
2020/12/27 09:57:55;;;;;;;1.40;0.30;;;5.90;84.90;;;;;;5091812;28;20059;-79
2020/12/27 10:00:21;;;;;;;0.20;0.10;;;5.90;84.60;;;;;;5079019;28;20054;-79
2020/12/27 10:02:47;;;;;;;0.80;0.50;;;5.90;84.50;;;;;;5108507;28;20420;-78
2020/12/27 10:05:13;;;;;;;2.10;0.40;;;5.90;84.60;;;;;;5086234;28;20165;-79
2020/12/27 10:07:39;;;;;;;0.87;0.30;;;5.90;84.90;;;;;;5086508;28;20027;-77
2020/12/27 10:10:07;;;;;;;2.20;0.23;;;5.90;85.00;;;;;;5083213;28;20019;-78
2020/12/27 10:12:33;;;;;;;0.70;0.23;;;5.90;85.10;;;;;;5108142;28;20099;-77
2020/12/27 10:14:58;;;;;;;0.13;0.03;;;6.00;84.60;;;;;;5087582;28;20028;-77
2020/12/27 10:17:24;;;;;;;1.67;0.37;;;6.00;84.40;;;;;;5071693;28;20435;-78
2020/12/27 10:19:50;;;;;;;2.00;0.07;;;6.00;84.80;;;;;;5085594;28;20038;-77
2020/12/27 10:22:16;;;;;;;0.10;0.03;;;6.00;83.80;;;;;;5091159;28;20499;-77
2020/12/27 10:24:42;;;;;;;1.10;0.30;;;6.00;84.20;;;;;;5091097;28;20636;-77
2020/12/27 10:27:08;;;;;;;1.53;0.50;;;6.00;84.40;;;;;;5109479;28;20475;-78
2020/12/27 10:29:34;;;;;;;1.10;0.47;;;6.00;84.00;;;;;;5090640;28;20156;-78
2020/12/27 10:32:02;;;;;;;5.83;2.70;;;6.00;84.60;;;;;;5110733;28;20036;-77
2020/12/27 10:34:28;;;;;;;0.50;0.20;;;6.00;85.30;;;;;;5104928;28;20063;-77
2020/12/27 10:36:57;;;;;;;1.77;0.60;;;6.00;85.60;;;;;;5102169;28;20076;-77
2020/12/27 10:39:23;;;;;;;1.10;0.20;;;6.00;85.30;;;;;;5107442;28;20027;-77
2020/12/27 10:41:50;;;;;;;1.07;0.40;;;6.00;85.10;;;;;;5094339;28;20471;-78
2020/12/27 10:44:15;;;;;;;4.17;2.10;;;6.00;85.20;;;;;;5112199;28;20028;-78
2020/12/27 10:46:42;;;;;;;0.83;0.30;;;6.00;85.70;;;;;;5092936;28;20021;-78
2020/12/27 10:49:08;;;;;;;3.27;1.83;;;6.00;85.50;;;;;;5079500;28;20020;-78
2020/12/27 10:51:37;;;;;;;1.70;0.50;;;6.00;85.70;;;;;;5061226;28;20471;-77
2020/12/27 10:54:04;;;;;;;3.87;0.30;;;6.00;85.70;;;;;;5113348;28;20074;-78
2020/12/27 10:56:30;;;;;;;4.60;2.33;;;6.00;85.20;;;;;;5112359;28;20104;-78
2020/12/27 10:58:56;;;;;;;2.03;0.93;;;6.00;85.40;;;;;;5095059;28;20258;-78
2020/12/27 11:01:22;;;;;;;3.10;1.47;;;6.00;85.10;;;;;;5075156;28;20147;-78
2020/12/27 11:03:48;;;;;;;1.17;0.50;;;6.00;86.00;;;;;;5094654;28;20040;-78
2020/12/27 11:06:13;;;;;;;1.90;0.23;;;6.00;85.40;;;;;;5112754;28;20173;-78
2020/12/27 11:08:39;;;;;;;4.33;1.53;;;6.00;85.50;;;;;;5089695;28;20119;-77
2020/12/27 11:11:05;;;;;;;0.63;0.20;;;5.90;86.10;;;;;;5091462;28;20115;-77
2020/12/27 11:13:31;;;;;;;3.60;0.70;;;6.00;85.80;;;;;;5106490;28;20028;-77
2020/12/27 11:15:56;;;;;;;2.43;0.33;;;5.90;86.20;;;;;;5112048;28;20047;-76
2020/12/27 11:18:22;;;;;;;0.67;0.20;;;5.90;86.20;;;;;;5094127;28;20039;-78
2020/12/27 11:20:48;;;;;;;1.77;0.80;;;5.90;86.20;;;;;;5094602;28;20417;-77
2020/12/27 11:23:13;;;;;;;1.37;0.40;;;5.90;86.10;;;;;;5111902;28;20444;-77
2020/12/27 11:25:39;;;;;;;1.33;0.53;;;5.90;86.40;;;;;;5110488;28;20028;-77
2020/12/27 11:28:05;;;;;;;0.97;0.37;;;5.80;86.00;;;;;;5096526;28;20122;-79
2020/12/27 11:30:30;;;;;;;0.80;0.10;;;5.90;86.20;;;;;;5077939;28;20032;-77
2020/12/27 11:32:56;;;;;;;1.17;0.50;;;5.90;86.30;;;;;;5095921;28;20081;-78
2020/12/27 11:35:22;;;;;;;0.20;0.00;;;5.90;86.60;;;;;;5073223;28;20040;-78
2020/12/27 11:37:50;;;;;;;0.53;0.10;;;5.80;86.80;;;;;;5075079;28;20032;-78
2020/12/27 11:40:16;;;;;;;1.00;0.60;;;5.80;86.40;;;;;;5107939;28;20024;-78
2020/12/27 11:42:41;;;;;;;1.70;0.73;;;5.80;86.40;;;;;;5077085;28;20028;-77
2020/12/27 11:45:07;;;;;;;1.50;0.53;;;5.80;86.20;;;;;;5095290;28;20085;-78
2020/12/27 11:47:33;;;;;;;0.40;0.10;;;5.80;86.70;;;;;;5095620;28;20487;-78
2020/12/27 11:49:58;;;;;;;1.47;0.67;;;5.80;86.90;;;;;;5079945;28;20028;-77
2020/12/27 11:52:24;;;;;;;1.00;0.33;;;5.80;86.90;;;;;;5112746;28;20031;-77
2020/12/27 11:54:53;;;;;;;2.53;1.00;;;5.80;86.70;;;;;;5091790;28;20433;-77
2020/12/27 11:57:19;;;;;;;1.60;0.57;;;5.80;87.30;;;;;;5094552;28;20059;-78
2020/12/27 11:59:45;;;;;;;0.30;0.10;;;5.80;86.80;;;;;;5077375;28;20688;-77
2020/12/27 12:02:10;;;;;;;1.67;0.87;;;5.80;86.70;;;;;;5071423;28;22125;-78
2020/12/27 12:04:36;;;;;;;0.50;0.10;;;5.90;87.00;;;;;;5081099;28;20128;-77
2020/12/27 12:07:03;;;;;;;5.00;2.07;;;5.90;86.90;;;;;;5083008;28;20154;-78
2020/12/27 12:09:29;;;;;;;2.03;0.60;;;5.90;87.00;;;;;;5085461;28;20032;-80
2020/12/27 12:11:55;;;;;;;0.53;0.23;;;5.90;86.80;;;;;;5081540;28;20498;-78
2020/12/27 12:14:20;;;;;;;0.27;0.10;;;5.90;87.00;;;;;;5086379;28;20106;-78
2020/12/27 12:16:46;;;;;;;0.63;0.33;;;5.90;86.70;;;;;;5087985;28;20031;-78
2020/12/27 12:19:12;;;;;;;0.90;0.30;;;5.90;86.10;;;;;;5065573;28;20031;-78
2020/12/27 12:21:37;;;;;;;0.97;0.40;;;6.00;85.80;;;;;;5104237;28;20023;-76
2020/12/27 12:24:03;;;;;;;0.50;0.20;;;6.00;85.50;;;;;;5079472;28;20473;-77
2020/12/27 12:26:30;;;;;;;0.60;0.30;;;6.00;85.60;;;;;;5067080;28;20036;-79
2020/12/27 12:28:58;;;;;;;1.03;0.60;;;6.00;85.50;;;;;;5078673;28;20050;-80
2020/12/27 12:31:25;;;;;;;1.67;0.40;;;6.00;85.10;;;;;;5078663;28;20024;-78
2020/12/27 12:33:51;;;;;;;1.87;0.90;;;6.00;85.50;;;;;;5074742;28;20055;-78
2020/12/27 12:36:18;;;;;;;0.60;0.20;;;6.10;85.70;;;;;;5077016;28;20040;-78
2020/12/27 12:38:44;;;;;;;1.30;0.70;;;6.10;85.60;;;;;;5084914;28;20127;-77
2020/12/27 12:41:11;;;;;;;0.97;0.10;;;6.10;84.50;;;;;;5090543;28;20043;-78
2020/12/27 12:43:40;;;;;;;1.73;0.50;;;6.20;84.20;;;;;;5089099;28;20023;-76
2020/12/27 12:46:10;;;;;;;1.50;0.43;;;6.20;84.30;;;;;;5090605;28;20030;-77
2020/12/27 12:48:36;;;;;;;2.23;1.23;;;6.20;82.90;;;;;;5088389;28;20062;-77
2020/12/27 12:51:06;;;;;;;1.10;0.40;;;6.20;84.00;;;;;;5090124;28;20436;-77
2020/12/27 12:53:32;;;;;;;1.23;0.60;;;6.30;82.90;;;;;;5072428;28;20114;-77
2020/12/27 12:55:58;;;;;;;1.97;1.03;;;6.30;83.20;;;;;;5090128;28;20091;-77
2020/12/27 12:58:24;;;;;;;0.10;0.00;;;6.30;82.70;;;;;;5089698;28;20369;-77
2020/12/27 13:00:49;;;;;;;0.50;0.17;;;6.30;82.10;;;;;;5089388;28;20031;-79